Time,TemperatureF,DewpointF,PressureIn,WindDirection,WindDirectionDegrees,WindSpeedMPH,WindSpeedGustMPH,Humidity,HourlyPrecipIn,Conditions,Clouds,dailyrainin,SolarRadiationWatts/m^2,SoftwareType,DateUTC
2013-05-06 00:02:00,58.1,52.0,29.96,East,92,4.0,-999.0,79,-99.99,,,0.00,0,weatherlink.com 1.10,2013-05-06 05:02:00,
2013-05-06 00:17:00,57.3,51.0,29.95,East,92,5.0,-999.0,80,-99.99,,,0.00,0,weatherlink.com 1.10,2013-05-06 05:17:00,
2013-05-06 00:32:00,57.3,51.0,29.96,East,93,5.0,-999.0,80,-99.99,,,0.00,0,weatherlink.com 1.10,2013-05-06 05:32:00,
2013-05-06 00:47:00,57.5,51.0,29.95,East,91,6.0,-999.0,79,-99.99,,,0.00,0,weatherlink.com 1.10,2013-05-06 05:47:00,
2013-05-06 01:02:00,57.2,51.0,29.96,East,92,5.0,-999.0,79,-99.99,,,0.00,0,weatherlink.com 1.10,2013-05-06 06:02:00,
2013-05-06 01:17:00,56.2,50.0,29.96,East,95,2.0,-999.0,80,-99.99,,,0.00,0,weatherlink.com 1.10,2013-05-06 06:17:00,
2013-05-06 01:32:00,55.4,50.0,29.95,East,94,0.0,-999.0,82,-99.99,,,0.00,0,weatherlink.com 1.10,2013-05-06 06:32:00,
2013-05-06 01:47:00,55.1,50.0,29.95,East,94,0.0,-999.0,83,-99.99,,,0.00,0,weatherlink.com 1.10,2013-05-06 06:47:00,
2013-05-06 02:02:00,55.1,50.0,29.95,East,94,0.0,-999.0,83,-99.99,,,0.00,0,weatherlink.com 1.10,2013-05-06 07:02:00,
2013-05-06 02:17:00,54.8,50.0,29.94,East,94,0.0,-999.0,83,-99.99,,,0.00,0,weatherlink.com 1.10,2013-05-06 07:17:00,
2013-05-06 02:32:00,54.7,50.0,29.94,NE,34,1.0,-999.0,84,-99.99,,,0.00,0,weatherlink.com 1.10,2013-05-06 07:32:00,
2013-05-06 02:47:00,54.2,50.0,29.94,NNW,340,0.0,-999.0,85,-99.99,,,0.00,0,weatherlink.com 1.10,2013-05-06 07:47:00,
2013-05-06 03:02:00,54.1,50.0,29.94,NNW,340,0.0,-999.0,85,-99.99,,,0.00,0,weatherlink.com 1.10,2013-05-06 08:02:00,
2013-05-06 03:17:00,53.9,50.0,29.94,NNW,340,0.0,-999.0,86,-99.99,,,0.00,0,weatherlink.com 1.10,2013-05-06 08:17:00,
2013-05-06 03:32:00,54.4,50.0,29.94,NNW,340,0.0,-999.0,86,-99.99,,,0.00,0,weatherlink.com 1.10,2013-05-06 08:32:00,
2013-05-06 03:47:00,54.8,50.0,29.94,NNW,340,0.0,-999.0,85,-99.99,,,0.00,0,weatherlink.com 1.10,2013-05-06 08:47:00,
2013-05-06 04:02:00,54.7,51.0,29.94,NNW,340,0.0,-999.0,86,-99.99,,,0.00,0,weatherlink.com 1.10,2013-05-06 09:02:00,
2013-05-06 04:17:00,54.7,51.0,29.95,NNW,340,4.0,-999.0,86,-99.99,,,0.00,0,weatherlink.com 1.10,2013-05-06 09:17:00,
2013-05-06 04:32:00,54.5,50.0,29.95,NNW,328,6.0,-999.0,86,-99.99,,,0.00,0,weatherlink.com 1.10,2013-05-06 09:32:00,
2013-05-06 04:47:00,54.4,51.0,29.95,NNE,26,5.0,-999.0,87,-99.99,,,0.00,0,weatherlink.com 1.10,2013-05-06 09:47:00,
2013-05-06 05:03:00,54.5,51.0,29.95,NNE,27,3.0,-999.0,88,-99.99,,,0.00,0,weatherlink.com 1.10,2013-05-06 10:03:00,
2013-05-06 05:18:00,54.4,51.0,29.95,NNW,342,4.0,-999.0,88,-99.99,,,0.00,0,weatherlink.com 1.10,2013-05-06 10:18:00,
2013-05-06 05:33:00,54.2,51.0,29.95,NW,325,6.0,-999.0,88,-99.99,,,0.00,0,weatherlink.com 1.10,2013-05-06 10:33:00,
2013-05-06 05:48:00,54.4,50.0,29.95,North,360,5.0,-999.0,86,-99.99,,,0.00,0,weatherlink.com 1.10,2013-05-06 10:48:00,
2013-05-06 06:03:00,54.4,50.0,29.95,NNW,343,6.0,-999.0,86,-99.99,,,0.00,7,weatherlink.com 1.10,2013-05-06 11:03:00,
2013-05-06 06:18:00,54.8,50.0,29.96,North,5,4.0,-999.0,85,-99.99,,,0.00,12,weatherlink.com 1.10,2013-05-06 11:18:00,
2013-05-06 06:33:00,55.1,51.0,29.97,North,355,0.0,-999.0,85,-99.99,,,0.00,23,weatherlink.com 1.10,2013-05-06 11:33:00,
2013-05-06 06:48:00,55.4,50.0,29.98,NNE,19,0.0,-999.0,83,-99.99,,,0.00,33,weatherlink.com 1.10,2013-05-06 11:48:00,
2013-05-06 07:03:00,56.0,51.0,29.99,NNE,19,0.0,-999.0,82,-99.99,,,0.00,42,weatherlink.com 1.10,2013-05-06 12:03:00,
2013-05-06 07:18:00,56.3,51.0,29.99,North,9,0.0,-999.0,82,-99.99,,,0.00,65,weatherlink.com 1.10,2013-05-06 12:18:00,
2013-05-06 07:33:00,56.6,52.0,29.99,NNW,342,6.0,-999.0,83,-99.99,,,0.00,111,weatherlink.com 1.10,2013-05-06 12:33:00,
2013-05-06 07:48:00,57.5,51.0,29.99,NNW,335,6.0,-999.0,80,-99.99,,,0.00,107,weatherlink.com 1.10,2013-05-06 12:48:00,
2013-05-06 08:03:00,58.1,52.0,29.99,NNW,333,10.0,-999.0,80,-99.99,,,0.00,125,weatherlink.com 1.10,2013-05-06 13:03:00,
2013-05-06 08:18:00,58.6,51.0,30.00,NNW,340,10.0,-999.0,76,-99.99,,,0.00,139,weatherlink.com 1.10,2013-05-06 13:18:00,
2013-05-06 08:33:00,58.9,51.0,30.00,NNW,333,9.0,-999.0,75,-99.99,,,0.00,204,weatherlink.com 1.10,2013-05-06 13:33:00,
2013-05-06 08:48:00,59.9,52.0,30.00,North,5,10.0,-999.0,74,-99.99,,,0.00,229,weatherlink.com 1.10,2013-05-06 13:48:00,
2013-05-06 09:03:00,60.5,51.0,30.00,North,355,9.0,-999.0,72,-99.99,,,0.00,190,weatherlink.com 1.10,2013-05-06 14:03:00,
2013-05-06 09:18:00,60.7,50.0,30.00,North,355,10.0,-999.0,69,-99.99,,,0.00,192,weatherlink.com 1.10,2013-05-06 14:18:00,
2013-05-06 09:33:00,61.5,52.0,30.00,NNW,348,10.0,-999.0,70,-99.99,,,0.00,320,weatherlink.com 1.10,2013-05-06 14:33:00,
2013-05-06 09:48:00,62.6,51.0,30.00,North,355,11.0,-999.0,66,-99.99,,,0.00,450,weatherlink.com 1.10,2013-05-06 14:48:00,
2013-05-06 10:03:00,64.0,51.0,30.00,North,5,5.0,-999.0,63,-99.99,,,0.00,475,weatherlink.com 1.10,2013-05-06 15:03:00,
2013-05-06 10:18:00,65.6,50.0,30.00,NNE,13,12.0,-999.0,58,-99.99,,,0.00,751,weatherlink.com 1.10,2013-05-06 15:18:00,
2013-05-06 10:33:00,65.6,50.0,29.99,NE,42,5.0,-999.0,57,-99.99,,,0.00,499,weatherlink.com 1.10,2013-05-06 15:33:00,
2013-05-06 10:48:00,67.6,52.0,29.99,NNE,26,9.0,-999.0,58,-99.99,,,0.00,997,weatherlink.com 1.10,2013-05-06 15:48:00,
2013-05-06 11:03:00,67.8,49.0,29.99,NNE,24,16.0,-999.0,52,-99.99,,,0.00,694,weatherlink.com 1.10,2013-05-06 16:03:00,
2013-05-06 11:19:00,68.8,49.0,29.98,NNE,25,7.0,-999.0,49,-99.99,,,0.00,708,weatherlink.com 1.10,2013-05-06 16:19:00,
2013-05-06 11:34:00,70.1,50.0,29.98,NE,44,9.0,-999.0,49,-99.99,,,0.00,1062,weatherlink.com 1.10,2013-05-06 16:34:00,
2013-05-06 11:49:00,70.8,51.0,29.97,NNE,19,6.0,-999.0,49,-99.99,,,0.00,923,weatherlink.com 1.10,2013-05-06 16:49:00,
2013-05-06 12:04:00,70.9,49.0,29.97,ENE,58,6.0,-999.0,46,-99.99,,,0.00,916,weatherlink.com 1.10,2013-05-06 17:04:00,
2013-05-06 12:19:00,71.8,50.0,29.96,NE,53,11.0,-999.0,46,-99.99,,,0.00,925,weatherlink.com 1.10,2013-05-06 17:19:00,
2013-05-06 12:34:00,72.1,50.0,29.96,NE,43,14.0,-999.0,46,-99.99,,,0.00,925,weatherlink.com 1.10,2013-05-06 17:34:00,
2013-05-06 12:49:00,72.1,48.0,29.95,NE,34,9.0,-999.0,42,-99.99,,,0.00,921,weatherlink.com 1.10,2013-05-06 17:49:00,
2013-05-06 13:04:00,72.8,49.0,29.95,NNE,26,12.0,-999.0,43,-99.99,,,0.00,914,weatherlink.com 1.10,2013-05-06 18:04:00,
2013-05-06 13:19:00,72.7,46.0,29.95,ENE,61,14.0,-999.0,39,-99.99,,,0.00,926,weatherlink.com 1.10,2013-05-06 18:19:00,
2013-05-06 13:34:00,73.0,46.0,29.95,NE,52,11.0,-999.0,38,-99.99,,,0.00,921,weatherlink.com 1.10,2013-05-06 18:34:00,
2013-05-06 13:49:00,73.7,46.0,29.94,NNE,17,6.0,-999.0,37,-99.99,,,0.00,912,weatherlink.com 1.10,2013-05-06 18:49:00,
2013-05-06 14:04:00,74.0,46.0,29.94,ENE,57,9.0,-999.0,37,-99.99,,,0.00,896,weatherlink.com 1.10,2013-05-06 19:04:00,
2013-05-06 14:19:00,74.2,46.0,29.94,North,360,7.0,-999.0,37,-99.99,,,0.00,872,weatherlink.com 1.10,2013-05-06 19:19:00,
2013-05-06 14:34:00,74.2,45.0,29.94,East,82,9.0,-999.0,36,-99.99,,,0.00,842,weatherlink.com 1.10,2013-05-06 19:34:00,
2013-05-06 14:49:00,74.7,46.0,29.93,NE,55,10.0,-999.0,36,-99.99,,,0.00,835,weatherlink.com 1.10,2013-05-06 19:49:00,
2013-05-06 15:04:00,74.9,46.0,29.92,NE,55,6.0,-999.0,36,-99.99,,,0.00,758,weatherlink.com 1.10,2013-05-06 20:04:00,
2013-05-06 15:19:00,75.6,46.0,29.92,NNE,17,19.0,-999.0,35,-99.99,,,0.00,789,weatherlink.com 1.10,2013-05-06 20:19:00,
2013-05-06 15:34:00,75.6,44.0,29.92,NNW,345,11.0,-999.0,33,-99.99,,,0.00,777,weatherlink.com 1.10,2013-05-06 20:34:00,
2013-05-06 15:49:00,75.3,44.0,29.92,ENE,61,5.0,-999.0,33,-99.99,,,0.00,656,weatherlink.com 1.10,2013-05-06 20:49:00,
2013-05-06 16:04:00,75.1,44.0,29.91,North,9,8.0,-999.0,33,-99.99,,,0.00,592,weatherlink.com 1.10,2013-05-06 21:04:00,
2013-05-06 16:19:00,75.4,45.0,29.91,North,355,9.0,-999.0,34,-99.99,,,0.00,541,weatherlink.com 1.10,2013-05-06 21:19:00,
2013-05-06 16:34:00,75.1,43.0,29.91,NE,52,11.0,-999.0,32,-99.99,,,0.00,554,weatherlink.com 1.10,2013-05-06 21:34:00,
2013-05-06 16:49:00,75.6,43.0,29.91,North,355,5.0,-999.0,31,-99.99,,,0.00,557,weatherlink.com 1.10,2013-05-06 21:49:00,
2013-05-06 17:04:00,76.0,43.0,29.91,NNW,348,13.0,-999.0,31,-99.99,,,0.00,401,weatherlink.com 1.10,2013-05-06 22:04:00,
2013-05-06 17:19:00,75.8,43.0,29.91,NNE,12,8.0,-999.0,31,-99.99,,,0.00,497,weatherlink.com 1.10,2013-05-06 22:19:00,
2013-05-06 17:34:00,75.8,45.0,29.91,NNE,23,6.0,-999.0,33,-99.99,,,0.00,517,weatherlink.com 1.10,2013-05-06 22:34:00,
2013-05-06 17:49:00,74.9,44.0,29.91,NNE,24,9.0,-999.0,33,-99.99,,,0.00,186,weatherlink.com 1.10,2013-05-06 22:49:00,
2013-05-06 18:04:00,74.0,43.0,29.91,NE,54,1.0,-999.0,33,-99.99,,,0.00,155,weatherlink.com 1.10,2013-05-06 23:04:00,
2013-05-06 18:19:00,73.5,45.0,29.92,NNE,32,4.0,-999.0,36,-99.99,,,0.00,132,weatherlink.com 1.10,2013-05-06 23:19:00,
2013-05-06 18:34:00,72.7,46.0,29.92,NNE,26,3.0,-999.0,38,-99.99,,,0.00,104,weatherlink.com 1.10,2013-05-06 23:34:00,
2013-05-06 18:49:00,71.8,45.0,29.92,NNE,22,6.0,-999.0,39,-99.99,,,0.00,76,weatherlink.com 1.10,2013-05-06 23:49:00,
2013-05-06 19:04:00,70.9,47.0,29.92,NNE,33,6.0,-999.0,43,-99.99,,,0.00,91,weatherlink.com 1.10,2013-05-07 00:04:00,
2013-05-06 19:19:00,71.1,47.0,29.92,NNE,32,1.0,-999.0,42,-99.99,,,0.00,56,weatherlink.com 1.10,2013-05-07 00:19:00,
2013-05-06 19:34:00,70.3,47.0,29.92,NE,46,4.0,-999.0,44,-99.99,,,0.00,26,weatherlink.com 1.10,2013-05-07 00:34:00,
2013-05-06 19:49:00,68.9,47.0,29.93,NE,42,0.0,-999.0,46,-99.99,,,0.00,16,weatherlink.com 1.10,2013-05-07 00:49:00,
2013-05-06 20:04:00,68.1,48.0,29.93,NNE,30,5.0,-999.0,48,-99.99,,,0.00,5,weatherlink.com 1.10,2013-05-07 01:04:00,
2013-05-06 20:19:00,65.8,48.0,29.93,NNE,24,6.0,-999.0,53,-99.99,,,0.00,0,weatherlink.com 1.10,2013-05-07 01:19:00,
2013-05-06 20:34:00,66.1,46.0,29.93,NNE,25,3.0,-999.0,49,-99.99,,,0.00,0,weatherlink.com 1.10,2013-05-07 01:34:00,
2013-05-06 20:49:00,67.1,46.0,29.94,NNE,30,3.0,-999.0,47,-99.99,,,0.00,0,weatherlink.com 1.10,2013-05-07 01:49:00,
2013-05-06 21:04:00,65.6,46.0,29.94,NNE,31,0.0,-999.0,49,-99.99,,,0.00,0,weatherlink.com 1.10,2013-05-07 02:04:00,
2013-05-06 21:19:00,65.8,46.0,29.94,NNE,33,2.0,-999.0,50,-99.99,,,0.00,0,weatherlink.com 1.10,2013-05-07 02:19:00,
2013-05-06 21:34:00,63.9,47.0,29.94,NNE,33,0.0,-999.0,54,-99.99,,,0.00,0,weatherlink.com 1.10,2013-05-07 02:34:00,
2013-05-06 21:49:00,62.7,46.0,29.95,NNE,33,0.0,-999.0,54,-99.99,,,0.00,0,weatherlink.com 1.10,2013-05-07 02:49:00,
2013-05-06 22:04:00,62.6,46.0,29.95,NNE,33,0.0,-999.0,55,-99.99,,,0.00,0,weatherlink.com 1.10,2013-05-07 03:04:00,
2013-05-06 22:19:00,58.9,47.0,29.95,ENE,78,0.0,-999.0,66,-99.99,,,0.00,0,weatherlink.com 1.10,2013-05-07 03:19:00,
2013-05-06 22:34:00,60.1,46.0,29.95,ENE,78,0.0,-999.0,60,-99.99,,,0.00,0,weatherlink.com 1.10,2013-05-07 03:34:00,
2013-05-06 22:49:00,60.2,46.0,29.95,ENE,78,0.0,-999.0,60,-99.99,,,0.00,0,weatherlink.com 1.10,2013-05-07 03:49:00,
2013-05-06 23:04:00,60.5,47.0,29.95,ENE,78,0.0,-999.0,62,-99.99,,,0.00,0,weatherlink.com 1.10,2013-05-07 04:04:00,
2013-05-06 23:19:00,60.4,48.0,29.95,ENE,78,0.0,-999.0,63,-99.99,,,0.00,0,weatherlink.com 1.10,2013-05-07 04:19:00,
2013-05-06 23:34:00,60.5,47.0,29.95,ENE,78,0.0,-999.0,61,-99.99,,,0.00,0,weatherlink.com 1.10,2013-05-07 04:34:00,
2013-05-06 23:49:00,60.1,48.0,29.95,ENE,78,0.0,-999.0,65,-99.99,,,0.00,0,weatherlink.com 1.10,2013-05-07 04:49:00,